Terminal Aerodrome Forecast
Issued by NWS

Home | Current Version | Previous Version | Text Only | Print | Product List | Glossary On
Versions: 1 2 3 4 5 6 7 8 9 10 11 12
000
FTUS45 KPIH 042320
TAFSUN
TAF
KSUN 042320Z 0500/0524 16009KT P6SM FEW060 BKN180
     FM050300 30009KT P6SM SCT080 BKN120
     FM051800 16007KT P6SM VCSH SCT080 OVC180
      AMD LTD TO CLD VIS AND WIND 0506/0514=

USA.gov is the U.S. government's official web portal to all federal, state and local government web resources and services.